Time;durP1;ratioP1;P1;durP2;ratioP2;P2;SDS_P1;SDS_P2;PMS_P1;PMS_P2;Temp;Humidity;BMP_temperature;BMP_pressure;BME280_temperature;BME280_humidity;BME280_pressure;Samples;Min_cycle;Max_cycle;Signal;HPM_P1;HPM_P2
2023/03/18 00:01:15;;;;;;;16.40;10.73;;;;;;;7.15;57.83;95009.78;4990768;28;20204;-53
2023/03/18 00:03:44;;;;;;;18.10;10.63;;;;;;;7.14;57.89;95006.44;4990173;28;20186;-49
2023/03/18 00:06:14;;;;;;;17.30;10.73;;;;;;;7.10;57.73;95004.22;4990255;28;20201;-52
2023/03/18 00:08:42;;;;;;;19.73;10.80;;;;;;;7.09;58.04;95003.41;4990626;28;20649;-51
2023/03/18 00:11:11;;;;;;;15.73;10.40;;;;;;;7.08;57.96;95000.94;4988993;28;20280;-48
2023/03/18 00:13:40;;;;;;;15.63;10.03;;;;;;;7.07;57.98;95001.88;4990296;28;20743;-51
2023/03/18 00:16:09;;;;;;;16.77;10.27;;;;;;;7.06;58.00;94990.91;4990639;28;20303;-52
2023/03/18 00:18:38;;;;;;;13.20;9.70;;;;;;;7.04;58.00;94993.56;4991248;28;20661;-49
2023/03/18 00:21:06;;;;;;;14.77;10.23;;;;;;;7.02;58.08;94992.84;4990246;28;20197;-51
2023/03/18 00:23:34;;;;;;;15.73;9.77;;;;;;;7.01;57.94;94998.06;4990530;28;20193;-55
2023/03/18 00:26:03;;;;;;;16.10;9.67;;;;;;;6.99;58.03;94992.25;4990918;28;20213;-58
2023/03/18 00:28:31;;;;;;;12.53;8.43;;;;;;;7.00;58.10;94988.81;4990821;28;20193;-57
2023/03/18 00:31:07;;;;;;;13.23;9.17;;;;;;;6.97;58.03;94982.19;4990338;28;20204;-55
2023/03/18 00:33:34;;;;;;;14.63;10.17;;;;;;;6.94;58.04;94977.31;4989955;28;20272;-51
2023/03/18 00:36:01;;;;;;;14.43;9.20;;;;;;;6.97;58.27;94978.84;4990474;28;20189;-54
2023/03/18 00:38:30;;;;;;;16.33;9.97;;;;;;;6.96;58.23;94984.84;4990841;28;20190;-49
2023/03/18 00:41:10;;;;;;;14.20;9.00;;;;;;;6.95;58.23;94978.97;4990094;28;20192;-55
2023/03/18 00:43:44;;;;;;;12.60;8.70;;;;;;;6.92;58.30;94974.09;4990390;28;20196;-51
2023/03/18 00:46:13;;;;;;;13.00;9.53;;;;;;;6.92;58.55;94969.00;4989786;28;20335;-49
2023/03/18 00:48:40;;;;;;;13.87;8.90;;;;;;;6.90;58.36;94964.94;4989905;28;20209;-52
2023/03/18 00:51:06;;;;;;;14.47;9.40;;;;;;;6.89;58.38;94966.66;4990288;28;20189;-48
2023/03/18 00:53:35;;;;;;;16.43;9.17;;;;;;;6.89;58.38;94965.88;4990007;28;20196;-55
2023/03/18 00:56:01;;;;;;;12.27;9.00;;;;;;;6.88;58.41;94956.63;4989738;28;20299;-51
2023/03/18 00:58:29;;;;;;;13.40;8.93;;;;;;;6.87;58.59;94953.28;4989956;28;20227;-51
2023/03/18 01:00:56;;;;;;;13.73;9.30;;;;;;;6.84;58.55;94953.47;4989694;28;20654;-57
2023/03/18 01:03:25;;;;;;;14.43;9.80;;;;;;;6.86;58.76;94958.44;4975139;28;20209;-57
2023/03/18 01:05:54;;;;;;;14.83;10.67;;;;;;;6.85;58.64;94950.00;4990362;28;20224;-54
2023/03/18 01:08:22;;;;;;;16.50;10.10;;;;;;;6.86;58.71;94953.34;4990810;28;20192;-57
2023/03/18 01:10:51;;;;;;;16.87;10.83;;;;;;;6.85;58.90;94949.19;4990561;28;20196;-50
2023/03/18 01:13:18;;;;;;;16.87;10.40;;;;;;;6.82;58.98;94947.69;4989663;28;20668;-51
2023/03/18 01:15:46;;;;;;;18.57;11.77;;;;;;;6.79;58.99;94933.47;4989669;28;20189;-51
2023/03/18 01:18:14;;;;;;;17.00;10.73;;;;;;;6.83;59.14;94940.88;4989223;28;20569;-52
2023/03/18 01:20:41;;;;;;;17.90;10.63;;;;;;;6.82;58.92;94941.78;4989838;28;20197;-50
2023/03/18 01:23:08;;;;;;;17.00;10.73;;;;;;;6.82;58.98;94941.78;4989388;28;20670;-52
2023/03/18 01:25:36;;;;;;;16.97;10.17;;;;;;;6.82;59.02;94944.31;4989675;28;20256;-49
2023/03/18 01:28:05;;;;;;;22.13;11.70;;;;;;;6.75;58.97;94932.06;4987089;28;20196;-49
2023/03/18 01:30:38;;;;;;;16.77;11.27;;;;;;;6.80;59.03;94931.75;4989840;28;20579;-56
2023/03/18 01:33:18;;;;;;;15.13;10.20;;;;;;;6.79;59.19;94937.75;4990069;28;20185;-57
2023/03/18 01:35:48;;;;;;;19.20;10.57;;;;;;;6.78;59.50;94938.69;4957273;28;20197;-53
2023/03/18 01:38:21;;;;;;;14.50;10.43;;;;;;;6.64;59.20;94913.41;4990190;28;20193;-54
2023/03/18 01:40:53;;;;;;;16.77;10.27;;;;;;;6.75;59.10;94931.25;4990373;28;20189;-58
2023/03/18 01:43:23;;;;;;;15.57;9.63;;;;;;;6.72;59.31;94921.31;4989138;28;20317;-54
2023/03/18 01:45:52;;;;;;;17.00;9.87;;;;;;;6.70;59.20;94929.03;4989234;28;20746;-51
2023/03/18 01:48:22;;;;;;;17.80;10.97;;;;;;;6.70;59.33;94929.03;4989430;28;20192;-50
2023/03/18 01:50:53;;;;;;;16.63;9.87;;;;;;;6.69;59.20;94937.59;4990022;28;20565;-51
2023/03/18 01:53:22;;;;;;;13.60;9.33;;;;;;;6.69;59.22;94926.59;4987286;28;20291;-53
2023/03/18 01:55:51;;;;;;;11.97;9.07;;;;;;;6.65;59.31;94922.66;4989047;28;20236;-48
2023/03/18 01:58:24;;;;;;;14.90;9.70;;;;;;;6.68;59.36;94922.44;4989055;28;20221;-47
2023/03/18 02:00:57;;;;;;;23.40;10.47;;;;;;;6.66;59.29;94929.38;4989255;28;20724;-49
2023/03/18 02:03:26;;;;;;;18.60;9.93;;;;;;;6.66;59.27;94924.28;4988904;28;20208;-48
2023/03/18 02:05:53;;;;;;;15.50;9.63;;;;;;;6.62;59.42;94920.34;4989254;28;20224;-51
2023/03/18 02:08:20;;;;;;;15.03;9.77;;;;;;;6.63;59.34;94921.94;4989506;28;20291;-54
2023/03/18 02:10:48;;;;;;;15.03;9.57;;;;;;;6.62;59.39;94918.59;4989358;28;20197;-56
2023/03/18 02:13:16;;;;;;;16.10;10.33;;;;;;;6.62;59.38;94921.16;4988967;28;20739;-56
2023/03/18 02:15:51;;;;;;;15.13;9.83;;;;;;;6.60;59.42;94917.06;4989250;28;20235;-56
2023/03/18 02:18:22;;;;;;;14.87;9.63;;;;;;;6.55;59.41;94909.78;4986749;28;20189;-55
2023/03/18 02:21:06;;;;;;;14.10;9.23;;;;;;;6.58;59.36;94913.84;4989348;28;20264;-53
2023/03/18 02:23:43;;;;;;;14.90;9.20;;;;;;;6.56;59.45;94911.41;4988815;28;20197;-53
2023/03/18 02:26:16;;;;;;;13.83;9.13;;;;;;;6.53;59.67;94911.63;4988934;28;20216;-50
2023/03/18 02:28:46;;;;;;;13.57;8.87;;;;;;;6.52;59.39;94910.81;4992814;28;20200;-54
2023/03/18 02:31:16;;;;;;;15.93;9.80;;;;;;;6.54;59.51;94918.31;4992424;28;20196;-51
2023/03/18 02:33:46;;;;;;;15.57;9.53;;;;;;;6.52;59.49;94917.63;4992575;28;20188;-51
2023/03/18 02:36:17;;;;;;;17.97;11.10;;;;;;;6.46;59.48;94906.16;4992457;28;20254;-49
2023/03/18 02:38:46;;;;;;;16.40;10.33;;;;;;;6.46;59.46;94900.28;4992761;28;20265;-54
2023/03/18 02:41:18;;;;;;;15.97;10.87;;;;;;;6.49;59.60;94918.66;4992469;28;20720;-47
2023/03/18 02:43:46;;;;;;;17.67;12.00;;;;;;;6.48;59.68;94913.69;4990446;28;20197;-53
2023/03/18 02:46:28;;;;;;;18.63;12.50;;;;;;;6.46;59.60;94911.25;4992773;28;20291;-47
2023/03/18 02:48:57;;;;;;;20.43;12.80;;;;;;;6.46;59.64;94915.50;4992546;28;20193;-49
2023/03/18 02:51:25;;;;;;;20.70;13.13;;;;;;;6.44;59.74;94910.53;4991828;28;20277;-54
2023/03/18 02:53:55;;;;;;;20.93;12.83;;;;;;;6.44;59.76;94910.53;4992545;28;20212;-53
2023/03/18 02:56:22;;;;;;;18.63;12.07;;;;;;;6.44;59.76;94914.81;4991881;28;20630;-52
2023/03/18 02:58:51;;;;;;;16.83;12.67;;;;;;;6.41;59.79;94908.22;4992318;28;20271;-50
2023/03/18 03:01:18;;;;;;;18.97;12.20;;;;;;;6.40;59.85;94910.88;4991515;28;20677;-51
2023/03/18 03:03:45;;;;;;;17.83;13.47;;;;;;;6.40;59.79;94914.22;4992112;28;20193;-53
2023/03/18 03:06:12;;;;;;;22.17;12.43;;;;;;;6.40;59.62;94915.94;4991805;28;20229;-55
2023/03/18 03:08:40;;;;;;;20.53;12.27;;;;;;;6.39;59.75;94915.16;4992097;28;20193;-56
2023/03/18 03:11:11;;;;;;;18.67;12.50;;;;;;;6.39;59.90;94911.75;4991671;28;20204;-56
2023/03/18 03:13:40;;;;;;;18.00;12.17;;;;;;;6.37;59.84;94913.63;4991589;28;20255;-57
2023/03/18 03:16:09;;;;;;;18.73;11.60;;;;;;;6.35;59.97;94915.44;4991708;28;20189;-51
2023/03/18 03:18:36;;;;;;;18.63;12.47;;;;;;;6.35;59.90;94920.50;4991635;28;20255;-49
2023/03/18 03:21:04;;;;;;;20.57;12.63;;;;;;;6.31;59.90;94911.50;4992008;28;20276;-54
2023/03/18 03:23:31;;;;;;;17.80;11.50;;;;;;;6.32;60.00;94915.66;4991749;28;20281;-50
2023/03/18 03:25:58;;;;;;;14.07;10.60;;;;;;;6.32;60.05;94918.22;4991933;28;21026;-50
2023/03/18 03:28:25;;;;;;;17.30;11.43;;;;;;;6.29;60.09;94922.56;4991790;28;20216;-55
2023/03/18 03:30:52;;;;;;;17.90;11.87;;;;;;;6.28;60.11;94928.56;4991396;28;20284;-56
2023/03/18 03:33:21;;;;;;;15.03;10.53;;;;;;;6.27;60.27;94932.03;4991868;28;20728;-53
2023/03/18 03:35:48;;;;;;;16.90;11.33;;;;;;;6.28;60.12;94927.75;4991286;28;20197;-53
2023/03/18 03:38:15;;;;;;;17.07;10.93;;;;;;;6.27;60.12;94931.22;4990235;28;20185;-55
2023/03/18 03:40:45;;;;;;;15.47;10.43;;;;;;;6.26;60.20;94927.03;4992299;28;20196;-57
2023/03/18 03:43:13;;;;;;;20.93;12.00;;;;;;;6.24;60.23;94929.69;4991647;28;20731;-52
2023/03/18 03:45:40;;;;;;;18.73;10.90;;;;;;;6.24;60.36;94926.34;4991066;28;20217;-53
2023/03/18 03:48:08;;;;;;;16.43;11.50;;;;;;;6.20;60.32;94924.94;4991376;28;20242;-51
2023/03/18 03:50:36;;;;;;;16.07;11.17;;;;;;;6.24;60.23;94936.50;4990989;28;20240;-53
2023/03/18 03:53:04;;;;;;;17.07;11.43;;;;;;;6.22;60.41;94936.63;4991048;28;20295;-51
2023/03/18 03:55:32;;;;;;;18.23;11.83;;;;;;;6.22;60.43;94936.63;4990561;28;20200;-53
2023/03/18 03:57:59;;;;;;;17.07;11.27;;;;;;;6.21;60.29;94934.97;4991135;28;20197;-49
2023/03/18 04:00:26;;;;;;;18.77;11.40;;;;;;;6.21;60.34;94931.63;4990790;28;20193;-46
2023/03/18 04:02:55;;;;;;;16.67;10.90;;;;;;;6.12;60.44;94928.00;4991017;28;20196;-48
2023/03/18 04:05:24;;;;;;;20.87;12.43;;;;;;;6.17;60.45;94932.75;4990294;28;20271;-50
2023/03/18 04:07:53;;;;;;;16.97;11.33;;;;;;;6.17;60.52;94932.75;4991107;28;20192;-51
2023/03/18 04:10:21;;;;;;;21.57;12.90;;;;;;;6.13;60.45;94926.25;4990844;28;20201;-50
2023/03/18 04:12:48;;;;;;;18.50;12.50;;;;;;;6.15;60.33;94932.88;4990967;28;20611;-50
2023/03/18 04:15:21;;;;;;;21.10;12.80;;;;;;;6.13;60.35;94939.78;4990455;28;20201;-53
2023/03/18 04:17:48;;;;;;;21.20;13.77;;;;;;;6.13;60.36;94946.56;4990892;28;20189;-53
2023/03/18 04:20:15;;;;;;;18.17;12.30;;;;;;;6.12;60.41;94953.38;4990098;28;20192;-54
2023/03/18 04:22:43;;;;;;;21.10;12.57;;;;;;;6.08;60.59;94946.88;4990683;28;20662;-49
2023/03/18 04:25:13;;;;;;;18.70;12.03;;;;;;;6.08;60.45;94949.44;4990602;28;20205;-51
2023/03/18 04:27:40;;;;;;;20.53;12.30;;;;;;;6.10;60.47;94956.97;4990616;28;20202;-49
2023/03/18 04:30:10;;;;;;;19.43;11.97;;;;;;;6.08;60.41;94961.31;4990572;28;20209;-51
2023/03/18 04:32:36;;;;;;;18.23;12.27;;;;;;;6.08;60.55;94962.13;4990168;28;20813;-50
2023/03/18 04:35:04;;;;;;;23.20;13.20;;;;;;;6.09;60.54;94966.31;4990143;28;20211;-52
2023/03/18 04:37:33;;;;;;;18.63;12.43;;;;;;;6.05;60.41;94964.88;4990786;28;20572;-51
2023/03/18 04:40:00;;;;;;;19.37;12.10;;;;;;;6.07;60.47;94973.19;4990259;28;20205;-51
2023/03/18 04:42:28;;;;;;;18.17;12.57;;;;;;;6.09;60.50;94975.63;4990353;28;20302;-55
2023/03/18 04:44:54;;;;;;;18.07;12.83;;;;;;;6.11;60.51;94972.06;4990260;28;20204;-47
2023/03/18 04:47:21;;;;;;;24.60;14.17;;;;;;;6.12;60.38;94975.44;4989482;28;20224;-51
2023/03/18 04:49:48;;;;;;;23.57;14.03;;;;;;;6.14;60.47;94976.97;4990087;28;20193;-52
2023/03/18 04:52:16;;;;;;;24.70;14.63;;;;;;;6.19;60.39;94982.53;4990010;28;20539;-48
2023/03/18 04:54:43;;;;;;;25.03;14.90;;;;;;;6.20;60.29;94984.16;4990521;28;20270;-52
2023/03/18 04:57:10;;;;;;;25.33;14.67;;;;;;;6.26;60.22;94980.38;4989938;28;20237;-50
2023/03/18 04:59:38;;;;;;;22.43;13.53;;;;;;;6.31;60.06;94980.91;4990469;28;20237;-54
2023/03/18 05:02:05;;;;;;;21.57;13.87;;;;;;;6.37;60.15;94983.00;4989431;28;20193;-51
2023/03/18 05:04:32;;;;;;;21.07;13.10;;;;;;;6.44;59.95;94985.94;4990124;28;20283;-50
2023/03/18 05:06:59;;;;;;;24.30;14.07;;;;;;;6.54;59.78;94979.31;4989585;28;20213;-55
2023/03/18 05:09:26;;;;;;;23.67;15.23;;;;;;;6.68;59.70;94989.31;4990030;28;20185;-53
2023/03/18 05:11:52;;;;;;;22.43;13.60;;;;;;;6.85;59.57;94983.06;4989599;28;20706;-56
2023/03/18 05:14:20;;;;;;;24.20;14.00;;;;;;;7.09;59.04;94985.59;4989430;28;20212;-53
2023/03/18 05:16:48;;;;;;;24.20;15.13;;;;;;;7.43;58.38;94986.53;4989822;28;20200;-57
2023/03/18 05:19:15;;;;;;;24.37;13.63;;;;;;;7.89;58.23;94982.34;4989983;28;20196;-57
2023/03/18 05:21:42;;;;;;;26.43;14.20;;;;;;;8.44;57.77;94990.94;4990471;28;20185;-57
2023/03/18 05:24:10;;;;;;;21.13;13.03;;;;;;;9.04;57.61;94977.72;5000924;28;20187;-52
2023/03/18 05:26:37;;;;;;;23.40;13.17;;;;;;;9.71;57.35;94971.47;4995010;28;20229;-54
2023/03/18 05:29:04;;;;;;;21.37;13.33;;;;;;;10.46;56.85;94975.50;4989292;28;20177;-54
2023/03/18 05:31:31;;;;;;;21.70;13.40;;;;;;;11.22;56.38;94980.06;4989259;28;20189;-50
2023/03/18 05:33:59;;;;;;;18.87;12.67;;;;;;;12.02;55.53;94968.66;4991448;28;20212;-53
2023/03/18 05:36:26;;;;;;;21.00;12.83;;;;;;;12.81;54.55;94971.53;4990685;28;20649;-53
2023/03/18 05:38:52;;;;;;;18.67;12.03;;;;;;;13.62;53.69;94965.56;5007246;28;20200;-50
2023/03/18 05:41:19;;;;;;;20.07;12.73;;;;;;;14.40;52.85;94969.88;4989064;28;20661;-51
2023/03/18 05:43:46;;;;;;;17.93;12.03;;;;;;;15.18;51.90;94975.59;4989014;28;20193;-49
2023/03/18 05:46:13;;;;;;;22.23;12.63;;;;;;;15.95;51.00;94983.88;4988550;28;20661;-51
2023/03/18 05:48:40;;;;;;;19.00;11.50;;;;;;;16.72;49.78;94983.34;4988472;28;20806;-54
2023/03/18 05:51:08;;;;;;;18.07;12.70;;;;;;;17.47;48.91;94986.16;4988875;28;20673;-53
2023/03/18 05:53:35;;;;;;;17.47;11.40;;;;;;;18.22;48.12;94982.78;4988684;28;20219;-48
2023/03/18 05:56:02;;;;;;;17.07;11.70;;;;;;;18.95;47.28;94985.53;4988655;28;20237;-51
2023/03/18 05:58:30;;;;;;;14.83;10.93;;;;;;;19.67;46.21;94992.47;4988789;28;20646;-54
2023/03/18 06:00:57;;;;;;;15.83;11.80;;;;;;;20.38;45.67;94995.81;4994118;28;20204;-56
2023/03/18 06:03:24;;;;;;;14.93;11.20;;;;;;;21.05;44.63;95002.97;4995429;28;20495;-54
2023/03/18 06:05:52;;;;;;;15.20;11.40;;;;;;;21.68;43.65;95007.16;4992968;28;20220;-57
2023/03/18 06:08:21;;;;;;;16.27;11.03;;;;;;;22.31;43.19;95009.38;4993013;28;20185;-57
2023/03/18 06:10:48;;;;;;;16.42;12.15;;;;;;;22.93;42.56;95013.28;4993117;28;20193;-53
2023/03/18 06:13:15;;;;;;;13.13;10.25;;;;;;;23.54;41.89;95010.97;4993424;28;20205;-56
2023/03/18 06:15:42;;;;;;;20.25;11.27;;;;;;;24.16;41.28;95010.34;4993161;28;20712;-56
2023/03/18 06:18:09;;;;;;;13.40;10.77;;;;;;;24.73;40.46;95011.03;4993223;28;20267;-56
2023/03/18 06:20:35;;;;;;;13.90;10.63;;;;;;;25.30;39.91;95003.75;4993155;28;20200;-54
2023/03/18 06:23:02;;;;;;;17.23;9.52;;;;;;;25.70;39.70;95021.56;4993137;28;20653;-55
2023/03/18 06:25:31;;;;;;;11.75;9.00;;;;;;;25.99;38.58;95026.00;4993693;28;20196;-55
2023/03/18 06:27:58;;;;;;;11.52;7.55;;;;;;;26.22;38.88;95013.94;4993184;28;20225;-55
2023/03/18 06:30:24;;;;;;;10.32;7.45;;;;;;;26.41;40.11;95012.78;4992524;28;20193;-51
2023/03/18 06:32:52;;;;;;;10.85;7.68;;;;;;;26.57;39.83;95013.16;4978378;28;20452;-58
2023/03/18 06:35:19;;;;;;;12.27;7.18;;;;;;;26.67;40.66;95005.50;4971097;28;20293;-56
2023/03/18 06:37:46;;;;;;;11.93;8.48;;;;;;;26.71;40.15;94996.13;4971163;28;20190;-53
2023/03/18 06:40:13;;;;;;;16.63;10.70;;;;;;;26.78;39.92;94983.69;4970876;28;20205;-54
2023/03/18 06:42:41;;;;;;;20.75;12.77;;;;;;;26.88;37.67;94980.47;4982764;28;20196;-54
2023/03/18 06:45:09;;;;;;;17.23;12.52;;;;;;;26.89;36.60;94969.72;5012296;28;20607;-53
2023/03/18 06:47:37;;;;;;;17.08;11.00;;;;;;;26.98;36.03;94976.22;5012484;28;20243;-51
2023/03/18 06:50:04;;;;;;;23.45;11.95;;;;;;;27.08;36.12;94980.09;5012530;28;20189;-54
2023/03/18 06:52:31;;;;;;;19.95;12.73;;;;;;;27.19;36.05;94977.44;5012135;28;20198;-52
2023/03/18 06:54:59;;;;;;;19.23;12.02;;;;;;;27.32;35.69;94975.56;5012271;28;20196;-56
2023/03/18 06:57:26;;;;;;;15.55;12.48;;;;;;;27.34;35.61;94970.88;5010853;28;20224;-55
2023/03/18 06:59:54;;;;;;;20.67;13.23;;;;;;;27.44;35.73;94981.56;5010914;28;20608;-53
2023/03/18 07:02:22;;;;;;;28.13;12.38;;;;;;;27.47;36.01;94981.09;5010961;28;20187;-56
2023/03/18 07:04:49;;;;;;;18.90;12.70;;;;;;;27.50;35.48;94983.22;5011075;28;20197;-54
2023/03/18 07:07:16;;;;;;;17.55;12.27;;;;;;;27.50;35.19;94983.22;5009153;28;20707;-55
2023/03/18 07:09:44;;;;;;;16.92;11.52;;;;;;;27.50;35.50;94978.81;5010465;28;20196;-62
2023/03/18 07:12:13;;;;;;;18.30;11.93;;;;;;;27.55;35.34;94988.59;5010668;28;20272;-52
2023/03/18 07:14:40;;;;;;;17.63;12.77;;;;;;;27.60;34.93;94980.81;5010669;28;20605;-53
2023/03/18 07:17:10;;;;;;;17.23;12.32;;;;;;;27.66;34.90;94981.69;5010992;28;20192;-56
2023/03/18 07:19:38;;;;;;;18.00;12.73;;;;;;;27.70;34.26;94983.59;5010593;28;20180;-55
2023/03/18 07:22:05;;;;;;;16.00;13.05;;;;;;;27.77;34.26;94988.75;5009880;28;20188;-58
2023/03/18 07:24:32;;;;;;;16.75;13.18;;;;;;;27.81;34.05;94981.97;5010420;28;20196;-52
2023/03/18 07:26:59;;;;;;;21.05;12.48;;;;;;;27.83;33.91;94979.88;5010780;28;20588;-58
2023/03/18 07:29:26;;;;;;;18.35;12.82;;;;;;;27.82;33.66;94985.41;5010025;28;20185;-47
2023/03/18 07:31:53;;;;;;;21.65;12.43;;;;;;;27.79;33.86;94991.91;5008930;28;20208;-54
2023/03/18 07:34:21;;;;;;;24.08;13.02;;;;;;;27.85;33.87;94995.41;5008857;28;20572;-52
2023/03/18 07:36:48;;;;;;;18.27;12.57;;;;;;;28.02;32.68;94998.84;5010649;28;20668;-51
2023/03/18 07:39:15;;;;;;;16.45;12.13;;;;;;;28.26;32.75;94989.75;5010043;28;20204;-55
2023/03/18 07:41:41;;;;;;;16.83;11.88;;;;;;;28.56;32.75;94986.00;5010227;28;20199;-51
2023/03/18 07:44:08;;;;;;;16.48;11.25;;;;;;;28.91;32.63;94998.03;5009729;28;20184;-47
2023/03/18 07:46:35;;;;;;;13.15;10.18;;;;;;;29.19;32.51;95000.50;5009772;28;20252;-48
2023/03/18 07:49:02;;;;;;;11.43;10.05;;;;;;;29.46;32.07;95012.91;5010008;28;20199;-47
2023/03/18 07:51:30;;;;;;;13.80;10.93;;;;;;;29.69;31.81;94999.44;5009850;28;20192;-55
2023/03/18 07:53:57;;;;;;;15.60;11.00;;;;;;;29.90;32.05;95000.44;5009911;28;20207;-47
2023/03/18 07:56:24;;;;;;;15.57;10.63;;;;;;;30.09;32.05;94995.56;4969339;28;1150727;-52
2023/03/18 07:58:51;;;;;;;13.10;10.27;;;;;;;30.28;31.84;95000.50;5009683;28;20196;-50
2023/03/18 08:01:19;;;;;;;15.13;11.75;;;;;;;30.42;31.58;95001.63;5010667;28;20610;-49
2023/03/18 08:03:46;;;;;;;13.45;10.40;;;;;;;30.45;31.75;94986.09;5011034;28;20200;-51
2023/03/18 08:06:14;;;;;;;13.60;10.30;;;;;;;30.57;31.57;95006.19;5010311;28;20224;-51
2023/03/18 08:08:43;;;;;;;13.63;10.63;;;;;;;30.61;31.43;95008.06;5010829;28;20224;-53
2023/03/18 08:11:10;;;;;;;13.95;10.18;;;;;;;30.66;31.50;94994.91;5010378;28;20212;-56
2023/03/18 08:13:38;;;;;;;14.57;10.63;;;;;;;30.71;31.44;94994.94;5010672;28;20211;-53
2023/03/18 08:16:06;;;;;;;13.20;9.90;;;;;;;30.75;31.63;94989.19;5010276;28;20200;-51
2023/03/18 08:18:32;;;;;;;12.35;10.88;;;;;;;30.76;31.70;94991.56;5010350;28;20208;-55
2023/03/18 08:20:59;;;;;;;12.45;10.50;;;;;;;30.71;31.67;94992.28;5010290;28;20188;-50
2023/03/18 08:23:26;;;;;;;12.40;10.55;;;;;;;30.66;31.65;94994.13;5008551;28;20602;-53
2023/03/18 08:25:55;;;;;;;12.80;9.75;;;;;;;30.59;31.42;94988.28;5009716;28;20270;-47
2023/03/18 08:28:22;;;;;;;12.38;10.20;;;;;;;30.46;32.04;95000.06;5010038;28;20301;-52
2023/03/18 08:30:54;;;;;;;14.80;11.07;;;;;;;30.33;32.12;95003.16;5010355;28;20246;-50
2023/03/18 08:33:21;;;;;;;11.60;9.40;;;;;;;30.18;32.36;95004.66;5010044;28;20299;-52
2023/03/18 08:35:48;;;;;;;12.57;10.70;;;;;;;30.04;32.79;94998.16;5010153;28;20224;-50
2023/03/18 08:38:15;;;;;;;12.23;9.60;;;;;;;29.93;32.39;94997.28;5009634;28;20644;-49
2023/03/18 08:40:42;;;;;;;12.70;10.45;;;;;;;29.80;32.84;94992.44;5009949;28;20200;-56
2023/03/18 08:43:10;;;;;;;12.07;10.18;;;;;;;29.65;32.64;94989.66;5009772;28;20192;-52
2023/03/18 08:45:37;;;;;;;13.45;9.98;;;;;;;29.50;32.96;94995.56;5010179;28;20185;-47
2023/03/18 08:48:05;;;;;;;14.23;10.85;;;;;;;29.29;33.00;94985.84;5007876;28;20248;-47
2023/03/18 08:50:32;;;;;;;11.73;9.88;;;;;;;29.14;32.53;94995.16;5009645;28;20200;-48
2023/03/18 08:53:00;;;;;;;14.18;10.45;;;;;;;28.99;32.65;94992.38;5009511;28;20669;-51
2023/03/18 08:55:29;;;;;;;13.60;10.15;;;;;;;28.81;32.71;94995.28;5009504;28;20192;-50
2023/03/18 08:57:56;;;;;;;13.10;9.85;;;;;;;28.65;32.39;94997.69;5009700;28;20664;-51
2023/03/18 09:00:25;;;;;;;13.43;10.90;;;;;;;28.45;32.72;94998.25;5009432;28;20185;-52
2023/03/18 09:02:52;;;;;;;15.10;10.57;;;;;;;28.26;32.40;94988.97;5009225;28;20695;-53
2023/03/18 09:05:20;;;;;;;14.50;10.93;;;;;;;28.05;32.24;95001.00;5009271;28;20188;-46
2023/03/18 09:07:47;;;;;;;14.07;9.93;;;;;;;27.85;32.25;94998.03;5009336;28;20216;-55
2023/03/18 09:10:16;;;;;;;12.25;9.93;;;;;;;27.66;32.37;94997.44;5009317;28;20184;-52
2023/03/18 09:12:44;;;;;;;13.88;9.80;;;;;;;27.46;32.40;95001.31;5007605;28;20307;-50
2023/03/18 09:15:13;;;;;;;11.68;10.35;;;;;;;27.27;32.20;94995.44;5009363;28;20189;-49
2023/03/18 09:17:42;;;;;;;13.05;9.27;;;;;;;27.08;32.26;94998.47;5009514;28;20203;-48
2023/03/18 09:20:11;;;;;;;13.07;10.05;;;;;;;26.87;32.26;94992.00;5008981;28;20193;-48
2023/03/18 09:22:39;;;;;;;15.35;10.35;;;;;;;26.66;32.13;95002.06;5009196;28;20192;-49
2023/03/18 09:25:06;;;;;;;9.93;8.73;;;;;;;26.45;31.88;94994.78;5009343;28;20185;-52
2023/03/18 09:27:33;;;;;;;10.60;8.95;;;;;;;26.25;31.83;95001.16;5009374;28;20239;-51
2023/03/18 09:30:00;;;;;;;11.30;9.18;;;;;;;26.07;32.09;95003.88;5009206;28;20199;-47
2023/03/18 09:32:27;;;;;;;11.00;8.98;;;;;;;25.86;31.87;95004.41;5009152;28;20204;-46
2023/03/18 09:34:55;;;;;;;12.20;8.90;;;;;;;25.63;31.80;95000.69;5009235;28;20601;-48
2023/03/18 09:37:22;;;;;;;9.45;8.55;;;;;;;25.41;31.70;94995.16;5008010;28;20545;-49
2023/03/18 09:39:50;;;;;;;11.88;7.82;;;;;;;25.23;31.74;94997.81;5009040;28;20218;-48
2023/03/18 09:42:37;;;;;;;13.80;7.65;;;;;;;24.98;31.89;94996.06;5009369;28;20291;-51
2023/03/18 09:45:14;;;;;;;8.65;7.07;;;;;;;24.72;31.70;94991.13;5009168;28;20219;-49
2023/03/18 09:47:55;;;;;;;8.13;7.03;;;;;;;24.37;31.69;94989.09;5009266;28;20607;-51
2023/03/18 09:50:37;;;;;;;8.85;6.63;;;;;;;24.08;31.72;94987.09;5009369;28;20199;-49
2023/03/18 09:53:14;;;;;;;8.43;7.40;;;;;;;23.80;32.08;94984.94;5009062;28;20223;-50
2023/03/18 09:55:45;;;;;;;6.78;5.88;;;;;;;23.44;32.26;94973.28;5009132;28;20636;-47
2023/03/18 09:58:21;;;;;;;7.95;6.07;;;;;;;23.16;32.19;94989.31;5008566;28;20298;-56
2023/03/18 10:00:50;;;;;;;8.25;5.85;;;;;;;22.93;32.42;94987.22;5009315;28;20295;-47
2023/03/18 10:03:27;;;;;;;8.18;6.38;;;;;;;22.71;32.35;94989.22;5008640;28;20720;-47
2023/03/18 10:06:01;;;;;;;7.30;5.47;;;;;;;22.50;32.60;94987.72;5009250;28;20262;-48
2023/03/18 10:08:41;;;;;;;8.25;6.68;;;;;;;22.23;32.52;94986.94;5008654;28;20307;-48
2023/03/18 10:11:19;;;;;;;7.40;6.28;;;;;;;22.08;32.72;94986.34;5008918;28;20192;-54
2023/03/18 10:13:54;;;;;;;7.18;5.13;;;;;;;21.89;32.54;94980.94;5009253;28;20227;-50
2023/03/18 10:16:25;;;;;;;6.53;5.28;;;;;;;21.68;32.79;94988.94;5008528;28;20608;-51
2023/03/18 10:18:53;;;;;;;6.40;5.40;;;;;;;21.42;32.83;94982.69;5008926;28;20280;-53
2023/03/18 10:21:37;;;;;;;6.63;5.32;;;;;;;21.18;33.09;94981.41;5009205;28;20598;-54
2023/03/18 10:24:19;;;;;;;5.55;4.65;;;;;;;20.97;33.10;94978.94;5008851;28;20207;-49
2023/03/18 10:26:49;;;;;;;6.75;4.78;;;;;;;20.88;33.07;94983.50;5008894;28;20189;-51
2023/03/18 10:29:34;;;;;;;5.20;4.65;;;;;;;20.68;33.17;94982.59;5008891;28;20212;-50
2023/03/18 10:32:13;;;;;;;6.43;5.00;;;;;;;20.47;33.30;94973.88;5008303;28;20229;-47
2023/03/18 10:34:46;;;;;;;9.93;4.72;;;;;;;20.29;33.42;94973.56;5009131;28;20631;-47
2023/03/18 10:37:20;;;;;;;7.03;4.70;;;;;;;20.21;33.46;94973.75;5008472;28;20188;-50
2023/03/18 10:39:48;;;;;;;4.43;4.03;;;;;;;20.22;33.30;94975.34;5008875;28;20193;-50
2023/03/18 10:42:28;;;;;;;4.63;3.87;;;;;;;20.18;33.34;94971.50;5008569;28;20588;-59
2023/03/18 10:45:08;;;;;;;6.33;4.07;;;;;;;20.02;33.33;94976.00;5008644;28;20196;-48
2023/03/18 10:47:40;;;;;;;5.30;4.33;;;;;;;19.83;33.33;94971.47;5009234;28;20220;-49
2023/03/18 10:50:16;;;;;;;4.47;3.93;;;;;;;19.77;33.42;94962.66;5011894;28;20591;-51
2023/03/18 10:52:51;;;;;;;5.30;4.73;;;;;;;19.83;33.36;94965.47;5012300;28;20226;-46
2023/03/18 10:55:22;;;;;;;4.90;4.40;;;;;;;19.78;33.18;94960.84;5011818;28;20192;-51
2023/03/18 10:57:49;;;;;;;6.63;3.87;;;;;;;19.67;33.20;94962.16;5012044;28;20232;-55
2023/03/18 11:00:27;;;;;;;4.20;3.80;;;;;;;19.61;33.15;94960.31;5011541;28;20212;-48
2023/03/18 11:02:55;;;;;;;4.80;3.97;;;;;;;19.55;33.10;94959.22;5011921;28;20200;-51
2023/03/18 11:05:25;;;;;;;3.97;3.63;;;;;;;19.50;33.13;94960.75;5011479;28;20196;-47
2023/03/18 11:08:02;;;;;;;3.90;3.47;;;;;;;19.37;33.19;94939.91;5011694;28;20212;-47
2023/03/18 11:10:34;;;;;;;4.80;3.60;;;;;;;19.39;33.22;94964.66;5011533;28;20200;-50
2023/03/18 11:13:02;;;;;;;4.57;3.67;;;;;;;19.25;33.29;94952.53;5011679;28;20224;-48
2023/03/18 11:15:30;;;;;;;4.30;3.83;;;;;;;18.95;33.38;94941.47;5011720;28;20181;-47
2023/03/18 11:18:02;;;;;;;4.27;3.77;;;;;;;18.94;33.53;94958.81;5011839;28;20224;-47
2023/03/18 11:20:41;;;;;;;4.07;3.67;;;;;;;18.73;33.80;94958.75;5011024;28;20268;-51
2023/03/18 11:23:16;;;;;;;3.70;3.40;;;;;;;18.53;33.84;94958.50;5011553;28;20686;-47
2023/03/18 11:25:46;;;;;;;3.47;3.17;;;;;;;18.33;33.88;94957.44;5011761;28;20211;-50
2023/03/18 11:28:21;;;;;;;4.10;3.30;;;;;;;18.14;34.09;94953.59;5011385;28;20218;-48
2023/03/18 11:30:51;;;;;;;6.47;3.60;;;;;;;17.96;34.26;94959.09;5011291;28;20295;-50
2023/03/18 11:33:20;;;;;;;4.93;3.60;;;;;;;17.60;34.34;94920.13;5011068;28;20200;-49